Aérodrome :
LOGIN :

S'inscrire | Disclaimer

   EN    FR    IT 

 










Légende :    VFR   VFR Marginal   IFR   IFR Intensif   IFR Très Intensif
Visi : 
Plafond : 
>= 8 km
>= 3000ft
5 à 8 km
1000 à 3000 ft
1500m à 5 km
500 à 1000 ft
800 à 1500m
200 à 500 ft
< 800m
< 200 ft
Symboles :   Orages  Brouillard  Fortes neiges  Fortes précipitations  Vent > 20 kt
SIGMETs :   Divers  Orages  Givrage  Turbulence  Onde Orograph.  Cendres Volcan.







- Altitude de l'aérodrome : 160 ft
- Code IATA : LRT
- Voir les cartes d'approche


LFRH - Lorient Lann Bihoue

DERNIER METAR :
  • 200630Z AUTO 21009KT 9999 FEW006 SCT015 BKN031 18/18 Q1017 BECMG SCT008 BKN012 BKN020

METARs EXPIRÉS :
  • 200600Z AUTO 20010KT 170V230 9999 FEW006 BKN013 BKN021 18/18 Q1017 NOSIG
  • 200530Z AUTO 22010KT 190V250 9999 SCT006 BKN013 BKN025 18/18 Q1017 TEMPO BKN006 BECMG 21015G25KT
  • 200500Z AUTO 22010KT 9999 BKN014 OVC021 18/18 Q1018 TEMPO BKN006 BECMG 21015G25KT
  • 200430Z AUTO 22012KT 9999 FEW007 OVC014 18/18 Q1018 TEMPO BKN006 BECMG 21015G25KT
  • 200400Z AUTO 22010KT 9999 BKN005 BKN011 BKN023 18/18 Q1018 NOSIG

TAF TAF LFRH
Valide du 20 à 06h jusqu'au 21 à 06h UTC


200500Z 2006/2106 21010KT 9999 SCT008 BKN012 BKN020
BECMG 2010/2012 21015G25KT
BECMG 2022/2024 22025G35KT 2000 RA BKN004 OVC009
BECMG 2102/2104 30010G25KT 9999 SCT015
BECMG 2104/2106 30010KT
Pas de NOTAMs connus pour ce terrain.



MET'MAP, la Météo Aéronautique d'un coup d'oeil ! - Copyright ORBIFLY Décembre 2007 - Disclaimer

ORBIFLY MET'MAP TEAM :

Programmation & Développement : Alexandra Zaïnal
Conception & Développement : Baudouin d'Aumeries
Co-Programmation & Développement : Marc-Olivier Méhu
Soutien technique & logistique : Manuel Goepfert

Contact : metmap@orbifly.com




SOURCES & CREDITS :

   NOAA